sensor_id;sensor_type;location;lat;lon;timestamp;P1;durP1;ratioP1;P2;durP2;ratioP2
25497;SDS011;13406;53.380;7.226;2024-01-30T00:01:59;20.60;;;12.23;;
25497;SDS011;13406;53.380;7.226;2024-01-30T00:04:25;15.43;;;11.00;;
25497;SDS011;13406;53.380;7.226;2024-01-30T00:06:51;21.00;;;11.47;;
25497;SDS011;13406;53.380;7.226;2024-01-30T00:09:18;15.00;;;11.67;;
25497;SDS011;13406;53.380;7.226;2024-01-30T00:11:43;14.80;;;10.60;;
25497;SDS011;13406;53.380;7.226;2024-01-30T00:14:11;16.80;;;11.40;;
25497;SDS011;13406;53.380;7.226;2024-01-30T00:16:37;15.90;;;11.00;;
25497;SDS011;13406;53.380;7.226;2024-01-30T00:19:02;18.60;;;12.67;;
25497;SDS011;13406;53.380;7.226;2024-01-30T00:21:28;20.17;;;11.97;;
25497;SDS011;13406;53.380;7.226;2024-01-30T00:23:58;16.93;;;11.00;;
25497;SDS011;13406;53.380;7.226;2024-01-30T00:26:24;14.70;;;10.20;;
25497;SDS011;13406;53.380;7.226;2024-01-30T00:28:49;16.40;;;11.83;;
25497;SDS011;13406;53.380;7.226;2024-01-30T00:31:17;17.00;;;10.47;;
25497;SDS011;13406;53.380;7.226;2024-01-30T00:33:45;16.30;;;11.27;;
25497;SDS011;13406;53.380;7.226;2024-01-30T00:36:13;19.33;;;11.13;;
25497;SDS011;13406;53.380;7.226;2024-01-30T00:38:41;19.53;;;11.77;;
25497;SDS011;13406;53.380;7.226;2024-01-30T00:41:08;17.80;;;11.57;;
25497;SDS011;13406;53.380;7.226;2024-01-30T00:43:34;16.00;;;11.47;;
25497;SDS011;13406;53.380;7.226;2024-01-30T00:46:00;19.67;;;11.37;;
25497;SDS011;13406;53.380;7.226;2024-01-30T00:48:25;15.80;;;11.37;;
25497;SDS011;13406;53.380;7.226;2024-01-30T00:50:51;18.70;;;10.80;;
25497;SDS011;13406;53.380;7.226;2024-01-30T00:53:16;15.87;;;10.30;;
25497;SDS011;13406;53.380;7.226;2024-01-30T00:55:41;17.07;;;11.43;;
25497;SDS011;13406;53.380;7.226;2024-01-30T00:58:08;16.30;;;11.50;;
25497;SDS011;13406;53.380;7.226;2024-01-30T01:00:34;19.33;;;11.47;;
25497;SDS011;13406;53.380;7.226;2024-01-30T01:02:59;17.47;;;11.67;;
25497;SDS011;13406;53.380;7.226;2024-01-30T01:05:27;16.80;;;11.80;;
25497;SDS011;13406;53.380;7.226;2024-01-30T01:07:55;15.40;;;10.27;;
25497;SDS011;13406;53.380;7.226;2024-01-30T01:10:23;15.03;;;10.57;;
25497;SDS011;13406;53.380;7.226;2024-01-30T01:12:49;17.27;;;10.80;;
25497;SDS011;13406;53.380;7.226;2024-01-30T01:15:14;16.43;;;11.73;;
25497;SDS011;13406;53.380;7.226;2024-01-30T01:17:42;15.60;;;11.23;;
25497;SDS011;13406;53.380;7.226;2024-01-30T01:20:08;19.23;;;11.00;;
25497;SDS011;13406;53.380;7.226;2024-01-30T01:22:35;17.23;;;10.53;;
25497;SDS011;13406;53.380;7.226;2024-01-30T01:25:01;15.57;;;10.33;;
25497;SDS011;13406;53.380;7.226;2024-01-30T01:27:26;19.20;;;11.23;;
25497;SDS011;13406;53.380;7.226;2024-01-30T01:29:54;19.60;;;10.83;;
25497;SDS011;13406;53.380;7.226;2024-01-30T01:32:20;13.57;;;9.87;;
25497;SDS011;13406;53.380;7.226;2024-01-30T01:34:46;15.00;;;10.53;;
25497;SDS011;13406;53.380;7.226;2024-01-30T01:37:11;15.63;;;10.97;;
25497;SDS011;13406;53.380;7.226;2024-01-30T01:39:37;16.47;;;9.60;;
25497;SDS011;13406;53.380;7.226;2024-01-30T01:42:03;15.80;;;10.37;;
25497;SDS011;13406;53.380;7.226;2024-01-30T01:44:28;14.73;;;9.77;;
25497;SDS011;13406;53.380;7.226;2024-01-30T01:46:58;15.60;;;10.13;;
25497;SDS011;13406;53.380;7.226;2024-01-30T01:49:27;13.83;;;10.00;;
25497;SDS011;13406;53.380;7.226;2024-01-30T01:51:54;15.53;;;10.20;;
25497;SDS011;13406;53.380;7.226;2024-01-30T01:54:25;14.53;;;9.93;;
25497;SDS011;13406;53.380;7.226;2024-01-30T01:56:57;22.37;;;10.33;;
25497;SDS011;13406;53.380;7.226;2024-01-30T01:59:25;16.67;;;10.00;;
25497;SDS011;13406;53.380;7.226;2024-01-30T02:01:51;18.03;;;10.37;;
25497;SDS011;13406;53.380;7.226;2024-01-30T02:04:18;15.03;;;9.90;;
25497;SDS011;13406;53.380;7.226;2024-01-30T02:06:45;12.70;;;9.50;;
25497;SDS011;13406;53.380;7.226;2024-01-30T02:09:11;15.90;;;9.87;;
25497;SDS011;13406;53.380;7.226;2024-01-30T02:11:37;18.10;;;10.37;;
25497;SDS011;13406;53.380;7.226;2024-01-30T02:14:09;17.23;;;10.63;;
25497;SDS011;13406;53.380;7.226;2024-01-30T02:16:37;16.10;;;10.00;;
25497;SDS011;13406;53.380;7.226;2024-01-30T02:19:05;15.00;;;9.63;;
25497;SDS011;13406;53.380;7.226;2024-01-30T02:21:32;14.47;;;10.33;;
25497;SDS011;13406;53.380;7.226;2024-01-30T02:24:03;15.50;;;10.13;;
25497;SDS011;13406;53.380;7.226;2024-01-30T02:26:29;21.03;;;10.27;;
25497;SDS011;13406;53.380;7.226;2024-01-30T02:28:57;17.63;;;10.30;;
25497;SDS011;13406;53.380;7.226;2024-01-30T02:31:24;14.20;;;9.87;;
25497;SDS011;13406;53.380;7.226;2024-01-30T02:33:50;14.40;;;10.30;;
25497;SDS011;13406;53.380;7.226;2024-01-30T02:36:16;15.10;;;9.97;;
25497;SDS011;13406;53.380;7.226;2024-01-30T02:38:41;14.83;;;10.53;;
25497;SDS011;13406;53.380;7.226;2024-01-30T02:43:40;16.17;;;9.80;;
25497;SDS011;13406;53.380;7.226;2024-01-30T02:46:06;13.57;;;9.30;;
25497;SDS011;13406;53.380;7.226;2024-01-30T02:48:31;15.60;;;9.47;;
25497;SDS011;13406;53.380;7.226;2024-01-30T02:50:56;16.73;;;10.40;;
25497;SDS011;13406;53.380;7.226;2024-01-30T02:53:23;13.50;;;10.43;;
25497;SDS011;13406;53.380;7.226;2024-01-30T02:55:48;16.87;;;10.47;;
25497;SDS011;13406;53.380;7.226;2024-01-30T02:58:14;20.43;;;10.97;;
25497;SDS011;13406;53.380;7.226;2024-01-30T03:00:39;15.90;;;9.40;;
25497;SDS011;13406;53.380;7.226;2024-01-30T03:03:05;15.40;;;10.57;;
25497;SDS011;13406;53.380;7.226;2024-01-30T03:05:30;15.50;;;10.10;;
25497;SDS011;13406;53.380;7.226;2024-01-30T03:07:55;17.40;;;9.73;;
25497;SDS011;13406;53.380;7.226;2024-01-30T03:10:21;14.80;;;10.60;;
25497;SDS011;13406;53.380;7.226;2024-01-30T03:12:46;21.53;;;10.73;;
25497;SDS011;13406;53.380;7.226;2024-01-30T03:15:12;14.80;;;9.57;;
25497;SDS011;13406;53.380;7.226;2024-01-30T03:17:37;15.17;;;9.73;;
25497;SDS011;13406;53.380;7.226;2024-01-30T03:20:03;14.53;;;9.80;;
25497;SDS011;13406;53.380;7.226;2024-01-30T03:22:29;14.83;;;10.67;;
25497;SDS011;13406;53.380;7.226;2024-01-30T03:24:55;12.97;;;9.83;;
25497;SDS011;13406;53.380;7.226;2024-01-30T03:27:20;14.47;;;9.07;;
25497;SDS011;13406;53.380;7.226;2024-01-30T03:29:46;16.67;;;10.13;;
25497;SDS011;13406;53.380;7.226;2024-01-30T03:32:11;17.60;;;9.90;;
25497;SDS011;13406;53.380;7.226;2024-01-30T03:34:37;13.70;;;10.20;;
25497;SDS011;13406;53.380;7.226;2024-01-30T03:37:02;13.40;;;9.27;;
25497;SDS011;13406;53.380;7.226;2024-01-30T03:39:28;16.70;;;10.90;;
25497;SDS011;13406;53.380;7.226;2024-01-30T03:41:53;15.67;;;10.57;;
25497;SDS011;13406;53.380;7.226;2024-01-30T03:44:19;14.97;;;10.47;;
25497;SDS011;13406;53.380;7.226;2024-01-30T03:46:44;14.43;;;10.23;;
25497;SDS011;13406;53.380;7.226;2024-01-30T03:49:10;18.37;;;9.77;;
25497;SDS011;13406;53.380;7.226;2024-01-30T03:51:35;14.60;;;9.70;;
25497;SDS011;13406;53.380;7.226;2024-01-30T03:54:01;18.67;;;10.20;;
25497;SDS011;13406;53.380;7.226;2024-01-30T03:56:26;17.90;;;9.70;;
25497;SDS011;13406;53.380;7.226;2024-01-30T03:58:52;13.50;;;9.63;;
25497;SDS011;13406;53.380;7.226;2024-01-30T04:01:17;18.47;;;10.13;;
25497;SDS011;13406;53.380;7.226;2024-01-30T04:03:43;18.10;;;11.13;;
25497;SDS011;13406;53.380;7.226;2024-01-30T04:06:09;17.40;;;10.20;;
25497;SDS011;13406;53.380;7.226;2024-01-30T04:08:35;18.10;;;10.37;;
25497;SDS011;13406;53.380;7.226;2024-01-30T04:11:04;16.27;;;10.90;;
25497;SDS011;13406;53.380;7.226;2024-01-30T04:13:31;14.60;;;9.17;;
25497;SDS011;13406;53.380;7.226;2024-01-30T04:15:58;16.30;;;11.17;;
25497;SDS011;13406;53.380;7.226;2024-01-30T04:18:26;15.10;;;9.80;;
25497;SDS011;13406;53.380;7.226;2024-01-30T04:20:52;14.20;;;10.07;;
25497;SDS011;13406;53.380;7.226;2024-01-30T04:23:17;14.40;;;9.67;;
25497;SDS011;13406;53.380;7.226;2024-01-30T04:25:43;14.40;;;10.20;;
25497;SDS011;13406;53.380;7.226;2024-01-30T04:28:09;14.30;;;10.13;;
25497;SDS011;13406;53.380;7.226;2024-01-30T04:30:37;21.43;;;11.00;;
25497;SDS011;13406;53.380;7.226;2024-01-30T04:33:02;17.83;;;10.57;;
25497;SDS011;13406;53.380;7.226;2024-01-30T04:35:31;13.37;;;9.53;;
25497;SDS011;13406;53.380;7.226;2024-01-30T04:37:56;15.57;;;10.43;;
25497;SDS011;13406;53.380;7.226;2024-01-30T04:40:22;16.10;;;11.33;;
25497;SDS011;13406;53.380;7.226;2024-01-30T04:42:47;15.73;;;9.30;;
25497;SDS011;13406;53.380;7.226;2024-01-30T04:45:13;19.23;;;10.00;;
25497;SDS011;13406;53.380;7.226;2024-01-30T04:47:38;13.10;;;9.87;;
25497;SDS011;13406;53.380;7.226;2024-01-30T04:50:04;14.07;;;9.90;;
25497;SDS011;13406;53.380;7.226;2024-01-30T04:52:31;13.33;;;9.80;;
25497;SDS011;13406;53.380;7.226;2024-01-30T04:54:57;13.83;;;10.00;;
25497;SDS011;13406;53.380;7.226;2024-01-30T04:57:22;15.67;;;10.10;;
25497;SDS011;13406;53.380;7.226;2024-01-30T04:59:48;16.90;;;9.87;;
25497;SDS011;13406;53.380;7.226;2024-01-30T05:02:13;16.50;;;10.30;;
25497;SDS011;13406;53.380;7.226;2024-01-30T05:04:40;14.07;;;9.97;;
25497;SDS011;13406;53.380;7.226;2024-01-30T05:07:06;17.53;;;10.23;;
25497;SDS011;13406;53.380;7.226;2024-01-30T05:09:31;17.47;;;10.00;;
25497;SDS011;13406;53.380;7.226;2024-01-30T05:11:57;15.63;;;10.57;;
25497;SDS011;13406;53.380;7.226;2024-01-30T05:14:23;14.67;;;10.40;;
25497;SDS011;13406;53.380;7.226;2024-01-30T05:16:49;18.23;;;11.50;;
25497;SDS011;13406;53.380;7.226;2024-01-30T05:19:14;14.33;;;10.53;;
25497;SDS011;13406;53.380;7.226;2024-01-30T05:21:40;13.67;;;9.80;;
25497;SDS011;13406;53.380;7.226;2024-01-30T05:24:06;15.43;;;10.90;;
25497;SDS011;13406;53.380;7.226;2024-01-30T05:26:32;14.30;;;10.57;;
25497;SDS011;13406;53.380;7.226;2024-01-30T05:28:57;14.80;;;10.30;;
25497;SDS011;13406;53.380;7.226;2024-01-30T05:31:23;14.77;;;10.10;;
25497;SDS011;13406;53.380;7.226;2024-01-30T05:33:51;17.27;;;10.30;;
25497;SDS011;13406;53.380;7.226;2024-01-30T05:36:16;14.93;;;10.90;;
25497;SDS011;13406;53.380;7.226;2024-01-30T05:38:42;14.50;;;10.37;;
25497;SDS011;13406;53.380;7.226;2024-01-30T05:41:08;11.83;;;8.80;;
25497;SDS011;13406;53.380;7.226;2024-01-30T05:43:33;16.80;;;10.70;;
25497;SDS011;13406;53.380;7.226;2024-01-30T05:45:59;14.77;;;10.60;;
25497;SDS011;13406;53.380;7.226;2024-01-30T05:48:24;14.60;;;9.80;;
25497;SDS011;13406;53.380;7.226;2024-01-30T05:50:50;18.37;;;11.00;;
25497;SDS011;13406;53.380;7.226;2024-01-30T05:53:15;15.73;;;10.80;;
25497;SDS011;13406;53.380;7.226;2024-01-30T05:55:41;15.10;;;10.60;;
25497;SDS011;13406;53.380;7.226;2024-01-30T05:58:06;15.67;;;11.00;;
25497;SDS011;13406;53.380;7.226;2024-01-30T06:00:32;19.63;;;11.03;;
25497;SDS011;13406;53.380;7.226;2024-01-30T06:02:57;14.67;;;10.03;;
25497;SDS011;13406;53.380;7.226;2024-01-30T06:05:22;22.23;;;10.30;;
25497;SDS011;13406;53.380;7.226;2024-01-30T06:07:48;13.43;;;9.80;;
25497;SDS011;13406;53.380;7.226;2024-01-30T06:10:13;15.90;;;10.00;;
25497;SDS011;13406;53.380;7.226;2024-01-30T06:12:39;15.10;;;10.90;;
25497;SDS011;13406;53.380;7.226;2024-01-30T06:15:05;14.90;;;9.77;;
25497;SDS011;13406;53.380;7.226;2024-01-30T06:17:31;15.90;;;10.00;;
25497;SDS011;13406;53.380;7.226;2024-01-30T06:19:57;15.53;;;10.53;;
25497;SDS011;13406;53.380;7.226;2024-01-30T06:22:23;16.17;;;11.20;;
25497;SDS011;13406;53.380;7.226;2024-01-30T06:24:48;17.13;;;10.47;;
25497;SDS011;13406;53.380;7.226;2024-01-30T06:27:14;16.50;;;11.00;;
25497;SDS011;13406;53.380;7.226;2024-01-30T06:29:45;16.40;;;10.57;;
25497;SDS011;13406;53.380;7.226;2024-01-30T06:32:11;16.20;;;10.20;;
25497;SDS011;13406;53.380;7.226;2024-01-30T06:34:36;16.30;;;10.60;;
25497;SDS011;13406;53.380;7.226;2024-01-30T06:37:03;18.35;;;11.85;;
25497;SDS011;13406;53.380;7.226;2024-01-30T06:39:29;16.27;;;10.60;;
25497;SDS011;13406;53.380;7.226;2024-01-30T06:41:54;16.57;;;11.20;;
25497;SDS011;13406;53.380;7.226;2024-01-30T06:44:20;16.40;;;11.03;;
25497;SDS011;13406;53.380;7.226;2024-01-30T06:46:45;15.87;;;12.30;;
25497;SDS011;13406;53.380;7.226;2024-01-30T06:49:11;15.50;;;11.73;;
25497;SDS011;13406;53.380;7.226;2024-01-30T06:51:36;19.03;;;12.20;;
25497;SDS011;13406;53.380;7.226;2024-01-30T06:54:01;18.57;;;10.70;;
25497;SDS011;13406;53.380;7.226;2024-01-30T06:56:27;16.80;;;12.00;;
25497;SDS011;13406;53.380;7.226;2024-01-30T06:58:53;16.00;;;11.23;;
25497;SDS011;13406;53.380;7.226;2024-01-30T07:01:18;16.50;;;12.17;;
25497;SDS011;13406;53.380;7.226;2024-01-30T07:03:44;19.80;;;12.20;;
25497;SDS011;13406;53.380;7.226;2024-01-30T07:06:09;15.80;;;11.10;;
25497;SDS011;13406;53.380;7.226;2024-01-30T07:08:38;21.37;;;11.07;;
25497;SDS011;13406;53.380;7.226;2024-01-30T07:11:04;15.70;;;11.07;;
25497;SDS011;13406;53.380;7.226;2024-01-30T07:13:31;18.97;;;11.87;;
25497;SDS011;13406;53.380;7.226;2024-01-30T07:15:56;15.87;;;11.47;;
25497;SDS011;13406;53.380;7.226;2024-01-30T07:18:22;25.57;;;12.60;;
25497;SDS011;13406;53.380;7.226;2024-01-30T07:20:47;16.93;;;11.90;;
25497;SDS011;13406;53.380;7.226;2024-01-30T07:23:14;16.60;;;11.25;;
25497;SDS011;13406;53.380;7.226;2024-01-30T07:25:42;18.47;;;11.27;;
25497;SDS011;13406;53.380;7.226;2024-01-30T07:28:11;15.33;;;11.73;;
25497;SDS011;13406;53.380;7.226;2024-01-30T07:30:41;17.53;;;10.63;;
25497;SDS011;13406;53.380;7.226;2024-01-30T07:33:07;16.10;;;11.60;;
25497;SDS011;13406;53.380;7.226;2024-01-30T07:35:33;15.20;;;11.23;;
25497;SDS011;13406;53.380;7.226;2024-01-30T07:37:59;15.20;;;10.90;;
25497;SDS011;13406;53.380;7.226;2024-01-30T07:40:24;15.73;;;10.93;;
25497;SDS011;13406;53.380;7.226;2024-01-30T07:42:49;20.03;;;10.93;;
25497;SDS011;13406;53.380;7.226;2024-01-30T07:45:15;18.60;;;11.20;;
25497;SDS011;13406;53.380;7.226;2024-01-30T07:47:41;17.00;;;10.97;;
25497;SDS011;13406;53.380;7.226;2024-01-30T07:50:07;18.07;;;11.43;;
25497;SDS011;13406;53.380;7.226;2024-01-30T07:52:33;16.07;;;10.97;;
25497;SDS011;13406;53.380;7.226;2024-01-30T07:54:58;15.50;;;10.60;;
25497;SDS011;13406;53.380;7.226;2024-01-30T07:57:24;17.23;;;11.07;;
25497;SDS011;13406;53.380;7.226;2024-01-30T07:59:50;14.67;;;10.90;;
25497;SDS011;13406;53.380;7.226;2024-01-30T08:02:15;15.40;;;11.17;;
25497;SDS011;13406;53.380;7.226;2024-01-30T08:04:41;14.93;;;11.20;;
25497;SDS011;13406;53.380;7.226;2024-01-30T08:07:06;15.10;;;10.40;;
25497;SDS011;13406;53.380;7.226;2024-01-30T08:09:32;17.13;;;11.33;;
25497;SDS011;13406;53.380;7.226;2024-01-30T08:11:57;15.63;;;10.83;;
25497;SDS011;13406;53.380;7.226;2024-01-30T08:14:22;22.10;;;10.83;;
25497;SDS011;13406;53.380;7.226;2024-01-30T08:16:48;15.43;;;10.50;;
25497;SDS011;13406;53.380;7.226;2024-01-30T08:19:16;16.20;;;10.87;;
25497;SDS011;13406;53.380;7.226;2024-01-30T08:21:42;17.50;;;10.70;;
25497;SDS011;13406;53.380;7.226;2024-01-30T08:24:08;17.60;;;10.70;;
25497;SDS011;13406;53.380;7.226;2024-01-30T08:26:33;16.23;;;10.73;;
25497;SDS011;13406;53.380;7.226;2024-01-30T08:29:00;18.73;;;11.83;;
25497;SDS011;13406;53.380;7.226;2024-01-30T08:31:26;14.90;;;10.67;;
25497;SDS011;13406;53.380;7.226;2024-01-30T08:33:51;16.80;;;11.70;;
25497;SDS011;13406;53.380;7.226;2024-01-30T08:36:17;15.03;;;10.30;;
25497;SDS011;13406;53.380;7.226;2024-01-30T08:38:43;15.60;;;11.40;;
25497;SDS011;13406;53.380;7.226;2024-01-30T08:41:08;14.53;;;10.60;;
25497;SDS011;13406;53.380;7.226;2024-01-30T08:43:34;15.60;;;10.20;;
25497;SDS011;13406;53.380;7.226;2024-01-30T08:46:00;18.70;;;10.20;;
25497;SDS011;13406;53.380;7.226;2024-01-30T08:48:27;18.70;;;11.60;;
25497;SDS011;13406;53.380;7.226;2024-01-30T08:50:52;14.83;;;10.70;;
25497;SDS011;13406;53.380;7.226;2024-01-30T08:53:18;16.00;;;11.60;;
25497;SDS011;13406;53.380;7.226;2024-01-30T08:55:44;16.70;;;10.80;;
25497;SDS011;13406;53.380;7.226;2024-01-30T08:58:09;14.37;;;10.10;;
25497;SDS011;13406;53.380;7.226;2024-01-30T09:00:35;18.07;;;10.10;;
25497;SDS011;13406;53.380;7.226;2024-01-30T09:03:01;15.27;;;11.33;;
25497;SDS011;13406;53.380;7.226;2024-01-30T09:05:26;17.43;;;11.57;;
25497;SDS011;13406;53.380;7.226;2024-01-30T09:07:52;19.40;;;11.90;;
25497;SDS011;13406;53.380;7.226;2024-01-30T09:10:17;16.60;;;11.20;;
25497;SDS011;13406;53.380;7.226;2024-01-30T09:12:42;17.17;;;11.80;;
25497;SDS011;13406;53.380;7.226;2024-01-30T09:15:08;17.20;;;11.33;;
25497;SDS011;13406;53.380;7.226;2024-01-30T09:17:34;16.73;;;11.10;;
25497;SDS011;13406;53.380;7.226;2024-01-30T09:19:59;18.57;;;12.97;;
25497;SDS011;13406;53.380;7.226;2024-01-30T09:22:25;16.97;;;11.20;;
25497;SDS011;13406;53.380;7.226;2024-01-30T09:24:50;16.27;;;11.73;;
25497;SDS011;13406;53.380;7.226;2024-01-30T09:27:16;19.53;;;11.40;;
25497;SDS011;13406;53.380;7.226;2024-01-30T09:29:41;15.07;;;11.10;;
25497;SDS011;13406;53.380;7.226;2024-01-30T09:32:07;15.97;;;11.07;;
25497;SDS011;13406;53.380;7.226;2024-01-30T09:34:34;14.07;;;10.60;;
25497;SDS011;13406;53.380;7.226;2024-01-30T09:36:59;15.97;;;10.53;;
25497;SDS011;13406;53.380;7.226;2024-01-30T09:39:25;15.23;;;10.97;;
25497;SDS011;13406;53.380;7.226;2024-01-30T09:42:11;14.90;;;10.30;;
25497;SDS011;13406;53.380;7.226;2024-01-30T09:44:39;15.80;;;10.47;;
25497;SDS011;13406;53.380;7.226;2024-01-30T09:47:08;15.83;;;11.50;;
25497;SDS011;13406;53.380;7.226;2024-01-30T09:49:35;14.63;;;9.87;;
25497;SDS011;13406;53.380;7.226;2024-01-30T09:52:05;14.93;;;11.07;;
25497;SDS011;13406;53.380;7.226;2024-01-30T09:54:31;16.97;;;12.00;;
25497;SDS011;13406;53.380;7.226;2024-01-30T09:56:58;15.03;;;9.97;;
25497;SDS011;13406;53.380;7.226;2024-01-30T09:59:23;17.17;;;9.87;;
25497;SDS011;13406;53.380;7.226;2024-01-30T10:01:50;18.30;;;10.80;;
25497;SDS011;13406;53.380;7.226;2024-01-30T10:04:16;14.07;;;9.63;;
25497;SDS011;13406;53.380;7.226;2024-01-30T10:06:41;14.13;;;10.30;;
25497;SDS011;13406;53.380;7.226;2024-01-30T10:09:07;18.07;;;10.20;;
25497;SDS011;13406;53.380;7.226;2024-01-30T10:11:33;23.33;;;12.47;;
25497;SDS011;13406;53.380;7.226;2024-01-30T10:13:59;17.47;;;10.50;;
25497;SDS011;13406;53.380;7.226;2024-01-30T10:16:25;17.40;;;11.50;;
25497;SDS011;13406;53.380;7.226;2024-01-30T10:18:50;19.70;;;11.57;;
25497;SDS011;13406;53.380;7.226;2024-01-30T10:21:16;13.70;;;10.40;;
25497;SDS011;13406;53.380;7.226;2024-01-30T10:23:43;16.27;;;9.87;;
25497;SDS011;13406;53.380;7.226;2024-01-30T10:26:09;19.13;;;10.00;;
25497;SDS011;13406;53.380;7.226;2024-01-30T10:28:35;14.70;;;9.90;;
25497;SDS011;13406;53.380;7.226;2024-01-30T10:31:00;19.63;;;10.67;;
25497;SDS011;13406;53.380;7.226;2024-01-30T10:33:28;14.73;;;11.07;;
25497;SDS011;13406;53.380;7.226;2024-01-30T10:36:03;17.10;;;10.03;;
25497;SDS011;13406;53.380;7.226;2024-01-30T10:38:30;16.23;;;10.40;;
25497;SDS011;13406;53.380;7.226;2024-01-30T10:40:57;15.57;;;10.00;;
25497;SDS011;13406;53.380;7.226;2024-01-30T10:43:23;13.10;;;10.67;;
25497;SDS011;13406;53.380;7.226;2024-01-30T10:45:55;15.10;;;10.10;;
25497;SDS011;13406;53.380;7.226;2024-01-30T10:48:29;12.87;;;9.17;;
25497;SDS011;13406;53.380;7.226;2024-01-30T10:50:57;14.50;;;10.00;;
25497;SDS011;13406;53.380;7.226;2024-01-30T10:53:25;13.17;;;8.93;;
25497;SDS011;13406;53.380;7.226;2024-01-30T10:55:52;14.77;;;10.53;;
25497;SDS011;13406;53.380;7.226;2024-01-30T10:58:19;20.23;;;10.10;;
25497;SDS011;13406;53.380;7.226;2024-01-30T11:00:45;16.77;;;11.83;;
25497;SDS011;13406;53.380;7.226;2024-01-30T11:03:11;15.87;;;10.77;;
25497;SDS011;13406;53.380;7.226;2024-01-30T11:05:40;13.70;;;9.60;;
25497;SDS011;13406;53.380;7.226;2024-01-30T11:08:14;19.77;;;9.73;;
25497;SDS011;13406;53.380;7.226;2024-01-30T11:10:47;15.17;;;10.00;;
25497;SDS011;13406;53.380;7.226;2024-01-30T11:13:13;16.60;;;9.83;;
25497;SDS011;13406;53.380;7.226;2024-01-30T11:15:39;19.80;;;9.50;;
25497;SDS011;13406;53.380;7.226;2024-01-30T11:18:05;14.00;;;9.07;;
25497;SDS011;13406;53.380;7.226;2024-01-30T11:20:31;14.03;;;8.77;;
25497;SDS011;13406;53.380;7.226;2024-01-30T11:22:58;17.63;;;9.13;;
25497;SDS011;13406;53.380;7.226;2024-01-30T11:25:24;17.23;;;9.83;;
25497;SDS011;13406;53.380;7.226;2024-01-30T11:27:51;20.10;;;9.97;;
25497;SDS011;13406;53.380;7.226;2024-01-30T11:30:28;16.73;;;9.87;;
25497;SDS011;13406;53.380;7.226;2024-01-30T11:35:33;14.00;;;9.23;;
25497;SDS011;13406;53.380;7.226;2024-01-30T11:38:00;14.60;;;9.90;;
25497;SDS011;13406;53.380;7.226;2024-01-30T11:40:29;16.83;;;9.40;;
25497;SDS011;13406;53.380;7.226;2024-01-30T11:42:56;13.43;;;9.27;;
25497;SDS011;13406;53.380;7.226;2024-01-30T11:45:23;14.73;;;9.43;;
25497;SDS011;13406;53.380;7.226;2024-01-30T11:47:49;16.90;;;9.77;;
25497;SDS011;13406;53.380;7.226;2024-01-30T11:50:15;19.40;;;13.70;;
25497;SDS011;13406;53.380;7.226;2024-01-30T11:52:41;19.17;;;11.00;;
25497;SDS011;13406;53.380;7.226;2024-01-30T11:55:08;19.53;;;9.40;;
25497;SDS011;13406;53.380;7.226;2024-01-30T11:57:35;18.50;;;10.77;;
25497;SDS011;13406;53.380;7.226;2024-01-30T12:00:02;15.30;;;9.47;;
25497;SDS011;13406;53.380;7.226;2024-01-30T12:02:41;15.40;;;10.20;;
25497;SDS011;13406;53.380;7.226;2024-01-30T12:05:07;21.90;;;10.40;;
25497;SDS011;13406;53.380;7.226;2024-01-30T12:07:33;17.37;;;10.60;;
25497;SDS011;13406;53.380;7.226;2024-01-30T12:09:59;20.57;;;10.33;;
25497;SDS011;13406;53.380;7.226;2024-01-30T12:12:28;16.40;;;9.43;;
25497;SDS011;13406;53.380;7.226;2024-01-30T12:14:56;18.87;;;10.83;;
25497;SDS011;13406;53.380;7.226;2024-01-30T12:17:32;19.57;;;10.17;;
25497;SDS011;13406;53.380;7.226;2024-01-30T12:20:06;18.83;;;10.80;;
25497;SDS011;13406;53.380;7.226;2024-01-30T12:22:42;15.70;;;9.47;;
25497;SDS011;13406;53.380;7.226;2024-01-30T12:25:16;14.83;;;9.10;;
25497;SDS011;13406;53.380;7.226;2024-01-30T12:27:42;13.60;;;9.10;;
25497;SDS011;13406;53.380;7.226;2024-01-30T12:30:10;16.20;;;9.87;;
25497;SDS011;13406;53.380;7.226;2024-01-30T12:32:38;18.13;;;8.80;;
25497;SDS011;13406;53.380;7.226;2024-01-30T12:35:09;17.40;;;9.27;;
25497;SDS011;13406;53.380;7.226;2024-01-30T12:37:35;18.30;;;9.57;;
25497;SDS011;13406;53.380;7.226;2024-01-30T12:40:01;14.83;;;8.27;;
25497;SDS011;13406;53.380;7.226;2024-01-30T12:42:27;16.63;;;7.50;;
25497;SDS011;13406;53.380;7.226;2024-01-30T12:44:52;12.07;;;7.10;;
25497;SDS011;13406;53.380;7.226;2024-01-30T12:47:18;19.57;;;7.37;;
25497;SDS011;13406;53.380;7.226;2024-01-30T12:49:46;14.17;;;6.00;;
25497;SDS011;13406;53.380;7.226;2024-01-30T12:52:14;16.00;;;6.17;;
25497;SDS011;13406;53.380;7.226;2024-01-30T12:54:41;19.03;;;6.00;;
25497;SDS011;13406;53.380;7.226;2024-01-30T12:57:06;13.53;;;5.73;;
25497;SDS011;13406;53.380;7.226;2024-01-30T12:59:32;15.07;;;5.67;;
25497;SDS011;13406;53.380;7.226;2024-01-30T13:01:59;12.47;;;4.47;;
25497;SDS011;13406;53.380;7.226;2024-01-30T13:04:25;11.70;;;4.30;;
25497;SDS011;13406;53.380;7.226;2024-01-30T13:06:52;9.93;;;3.80;;
25497;SDS011;13406;53.380;7.226;2024-01-30T13:09:17;11.80;;;4.20;;
25497;SDS011;13406;53.380;7.226;2024-01-30T13:11:43;9.60;;;3.80;;
25497;SDS011;13406;53.380;7.226;2024-01-30T13:14:08;12.60;;;3.50;;
25497;SDS011;13406;53.380;7.226;2024-01-30T13:16:34;10.07;;;3.10;;
25497;SDS011;13406;53.380;7.226;2024-01-30T13:18:59;9.27;;;3.13;;
25497;SDS011;13406;53.380;7.226;2024-01-30T13:21:26;8.60;;;2.30;;
25497;SDS011;13406;53.380;7.226;2024-01-30T13:23:52;8.10;;;2.17;;
25497;SDS011;13406;53.380;7.226;2024-01-30T13:26:19;9.20;;;2.03;;
25497;SDS011;13406;53.380;7.226;2024-01-30T13:28:47;8.90;;;2.03;;
25497;SDS011;13406;53.380;7.226;2024-01-30T13:31:13;6.20;;;1.43;;
25497;SDS011;13406;53.380;7.226;2024-01-30T13:33:39;6.30;;;1.43;;
25497;SDS011;13406;53.380;7.226;2024-01-30T13:36:05;6.47;;;1.63;;
25497;SDS011;13406;53.380;7.226;2024-01-30T13:38:31;6.90;;;1.40;;
25497;SDS011;13406;53.380;7.226;2024-01-30T13:40:57;5.70;;;1.10;;
25497;SDS011;13406;53.380;7.226;2024-01-30T13:43:22;4.93;;;1.10;;
25497;SDS011;13406;53.380;7.226;2024-01-30T13:45:48;5.10;;;0.93;;
25497;SDS011;13406;53.380;7.226;2024-01-30T13:48:13;5.67;;;1.30;;
25497;SDS011;13406;53.380;7.226;2024-01-30T13:50:38;7.80;;;1.20;;
25497;SDS011;13406;53.380;7.226;2024-01-30T13:53:04;4.87;;;1.20;;
25497;SDS011;13406;53.380;7.226;2024-01-30T13:55:29;6.10;;;1.10;;
25497;SDS011;13406;53.380;7.226;2024-01-30T13:57:55;7.07;;;1.30;;
25497;SDS011;13406;53.380;7.226;2024-01-30T14:00:21;6.30;;;1.20;;
25497;SDS011;13406;53.380;7.226;2024-01-30T14:02:48;7.80;;;1.10;;
25497;SDS011;13406;53.380;7.226;2024-01-30T14:05:13;5.40;;;1.03;;
25497;SDS011;13406;53.380;7.226;2024-01-30T14:07:39;5.57;;;1.10;;
25497;SDS011;13406;53.380;7.226;2024-01-30T14:10:05;6.50;;;1.10;;
25497;SDS011;13406;53.380;7.226;2024-01-30T14:12:31;5.30;;;0.90;;
25497;SDS011;13406;53.380;7.226;2024-01-30T14:14:57;3.83;;;0.77;;
25497;SDS011;13406;53.380;7.226;2024-01-30T14:17:22;5.40;;;0.90;;
25497;SDS011;13406;53.380;7.226;2024-01-30T14:19:48;5.67;;;1.47;;
25497;SDS011;13406;53.380;7.226;2024-01-30T14:22:13;5.17;;;1.13;;
25497;SDS011;13406;53.380;7.226;2024-01-30T14:24:39;4.20;;;0.80;;
25497;SDS011;13406;53.380;7.226;2024-01-30T14:27:04;9.30;;;0.97;;